Time;durP1;ratioP1;P1;durP2;ratioP2;P2;SDS_P1;SDS_P2;PMS_P1;PMS_P2;Temp;Humidity;BMP_temperature;BMP_pressure;BME280_temperature;BME280_humidity;BME280_pressure;Samples;Min_cycle;Max_cycle;Signal;HPM_P1;HPM_P2
2023/06/13 00:01:50;;;;;;;3.40;3.10;;;28.50;47.90;;;;;;5063971;28;20194;-45
2023/06/13 00:04:23;;;;;;;3.50;3.20;;;28.50;48.00;;;;;;5066665;28;20205;-45
2023/06/13 00:06:57;;;;;;;3.60;3.30;;;28.50;47.90;;;;;;5058867;28;20368;-45
2023/06/13 00:09:28;;;;;;;3.10;2.80;;;28.40;47.90;;;;;;5080126;28;20204;-45
2023/06/13 00:11:58;;;;;;;3.30;3.00;;;28.40;48.00;;;;;;5062647;28;20249;-45
2023/06/13 00:14:26;;;;;;;3.17;2.87;;;28.30;48.00;;;;;;5050557;28;20206;-46
2023/06/13 00:16:57;;;;;;;5.37;3.30;;;28.30;48.00;;;;;;5057687;28;20252;-46
2023/06/13 00:19:28;;;;;;;4.07;3.13;;;28.30;48.00;;;;;;5058906;28;20282;-46
2023/06/13 00:22:01;;;;;;;3.43;3.00;;;28.30;48.10;;;;;;5067134;28;20206;-45
2023/06/13 00:24:30;;;;;;;4.00;3.13;;;28.30;48.10;;;;;;5068613;28;20205;-45
2023/06/13 00:26:59;;;;;;;3.33;2.90;;;28.20;48.10;;;;;;5065903;28;20197;-45
2023/06/13 00:29:27;;;;;;;4.30;3.17;;;28.20;48.10;;;;;;5068282;28;20487;-45
2023/06/13 00:31:59;;;;;;;3.07;2.77;;;28.20;48.10;;;;;;5065605;28;20208;-45
2023/06/13 00:34:38;;;;;;;3.30;3.00;;;28.20;48.10;;;;;;5058320;28;20196;-45
2023/06/13 00:37:05;;;;;;;2.97;2.77;;;28.20;48.10;;;;;;5068368;28;20221;-45
2023/06/13 00:39:33;;;;;;;2.93;2.70;;;28.10;48.10;;;;;;5034779;28;20206;-45
2023/06/13 00:42:03;;;;;;;3.10;2.90;;;28.20;48.10;;;;;;5066370;28;20229;-45
2023/06/13 00:44:33;;;;;;;3.20;2.90;;;28.10;48.10;;;;;;5085835;28;20765;-45
2023/06/13 00:47:05;;;;;;;3.40;3.10;;;28.10;48.20;;;;;;5057923;28;20194;-45
2023/06/13 00:49:35;;;;;;;3.70;3.40;;;28.10;48.10;;;;;;5071082;28;20181;-45
2023/06/13 00:52:08;;;;;;;3.53;3.10;;;28.10;48.10;;;;;;5088057;28;20216;-45
2023/06/13 00:54:40;;;;;;;3.20;2.80;;;28.10;48.10;;;;;;5083326;28;20229;-45
2023/06/13 00:57:10;;;;;;;3.23;2.83;;;28.10;48.20;;;;;;5070196;28;20226;-45
2023/06/13 00:59:40;;;;;;;3.10;2.90;;;28.10;48.20;;;;;;5088539;28;20243;-45
2023/06/13 01:02:08;;;;;;;3.97;2.97;;;28.10;48.20;;;;;;5069841;28;20637;-45
2023/06/13 01:04:41;;;;;;;3.33;3.07;;;28.00;48.10;;;;;;5087114;28;20190;-45
2023/06/13 01:07:15;;;;;;;3.57;3.27;;;28.00;48.10;;;;;;5086237;28;20213;-45
2023/06/13 01:09:47;;;;;;;3.47;3.17;;;28.00;48.00;;;;;;5089344;28;20205;-45
2023/06/13 01:12:57;;;;;;;3.87;3.00;;;28.00;48.00;;;;;;5089319;28;20661;-45
2023/06/13 01:15:35;;;;;;;3.37;3.10;;;28.00;48.00;;;;;;5069542;28;20534;-45
2023/06/13 01:18:08;;;;;;;3.07;2.87;;;27.90;48.00;;;;;;5077439;28;20543;-46
2023/06/13 01:20:38;;;;;;;3.00;2.80;;;28.00;48.10;;;;;;5082998;28;20556;-45
2023/06/13 01:23:44;;;;;;;3.10;2.90;;;28.00;48.10;;;;;;5088385;28;20189;-45
2023/06/13 01:26:42;;;;;;;3.40;3.10;;;27.90;48.00;;;;;;5081647;28;20189;-45
2023/06/13 01:29:18;;;;;;;3.03;2.73;;;28.00;48.70;;;;;;5051578;28;20198;-45
2023/06/13 01:31:50;;;;;;;3.37;3.10;;;27.90;48.00;;;;;;5021015;28;20215;-46
2023/06/13 01:34:21;;;;;;;2.80;2.60;;;27.90;48.00;;;;;;5048852;28;20197;-46
2023/06/13 01:36:50;;;;;;;3.20;2.90;;;27.90;48.00;;;;;;5031737;28;20202;-45
2023/06/13 01:39:22;;;;;;;3.60;3.30;;;27.90;48.00;;;;;;5051293;28;20812;-46
2023/06/13 01:41:53;;;;;;;3.30;3.00;;;27.90;48.00;;;;;;5050611;28;20197;-46
2023/06/13 01:44:25;;;;;;;3.03;2.80;;;27.90;47.90;;;;;;5041946;28;20209;-47
2023/06/13 01:47:19;;;;;;;2.73;2.53;;;27.90;48.00;;;;;;5048876;28;20225;-46
2023/06/13 01:50:28;;;;;;;3.20;2.90;;;27.90;47.90;;;;;;5055411;28;20194;-45
2023/06/13 01:53:10;;;;;;;4.13;3.33;;;27.90;47.90;;;;;;5036972;28;20719;-45
2023/06/13 01:56:00;;;;;;;2.90;2.60;;;27.90;47.90;;;;;;5063508;28;20205;-46
2023/06/13 01:58:55;;;;;;;3.90;3.27;;;27.80;47.80;;;;;;5040103;28;20209;-46
2023/06/13 02:01:27;;;;;;;3.87;2.97;;;27.90;47.90;;;;;;5043094;28;20264;-45
2023/06/13 02:03:55;;;;;;;3.00;2.80;;;27.80;47.80;;;;;;5039243;28;20693;-45
2023/06/13 02:06:26;;;;;;;4.27;3.00;;;27.90;47.90;;;;;;5048475;28;20555;-45
2023/06/13 02:08:58;;;;;;;4.17;2.80;;;27.80;47.70;;;;;;5057936;28;20206;-45
2023/06/13 02:11:27;;;;;;;3.87;3.10;;;27.80;47.70;;;;;;5070709;28;20259;-45
2023/06/13 02:13:58;;;;;;;4.50;3.57;;;27.80;47.70;;;;;;5050870;28;20202;-45
2023/06/13 02:16:30;;;;;;;3.73;2.70;;;27.80;47.60;;;;;;5050622;28;20565;-46
2023/06/13 02:19:01;;;;;;;3.50;3.20;;;27.80;47.70;;;;;;5045641;28;20253;-45
2023/06/13 02:21:32;;;;;;;3.77;3.47;;;27.80;47.60;;;;;;5069828;28;20220;-45
2023/06/13 02:24:00;;;;;;;3.17;2.90;;;27.80;47.70;;;;;;5069862;28;20197;-45
2023/06/13 02:26:29;;;;;;;3.87;3.30;;;27.80;48.20;;;;;;5065037;28;20613;-47
2023/06/13 02:29:07;;;;;;;3.83;3.20;;;27.80;47.60;;;;;;5068444;28;20237;-45
2023/06/13 02:31:40;;;;;;;4.20;3.33;;;27.80;47.60;;;;;;5075194;28;20574;-45
2023/06/13 02:34:15;;;;;;;3.33;3.03;;;27.80;47.60;;;;;;5069386;28;20190;-46
2023/06/13 02:36:50;;;;;;;4.60;2.90;;;27.80;47.60;;;;;;5069081;28;20213;-45
2023/06/13 02:39:20;;;;;;;3.73;2.70;;;27.80;47.60;;;;;;5089480;28;20212;-45
2023/06/13 02:41:52;;;;;;;3.03;2.80;;;27.70;47.50;;;;;;5066642;28;20189;-45
2023/06/13 02:44:22;;;;;;;3.27;2.97;;;27.70;47.40;;;;;;5087556;28;20220;-45
2023/06/13 02:46:54;;;;;;;3.40;3.03;;;27.70;47.40;;;;;;5080907;28;20204;-45
2023/06/13 02:49:26;;;;;;;3.20;2.90;;;27.70;47.50;;;;;;5090363;28;20201;-45
2023/06/13 02:51:54;;;;;;;3.73;2.90;;;27.70;47.50;;;;;;5090139;28;20658;-45
2023/06/13 02:54:25;;;;;;;3.30;2.90;;;27.70;47.50;;;;;;5090177;28;20201;-45
2023/06/13 02:56:55;;;;;;;5.07;3.20;;;27.60;47.40;;;;;;5063141;28;20703;-45
2023/06/13 02:59:27;;;;;;;3.57;3.00;;;27.60;47.50;;;;;;5086284;28;20753;-46
2023/06/13 03:01:55;;;;;;;3.30;3.00;;;27.60;47.50;;;;;;5089067;28;20201;-45
2023/06/13 03:04:24;;;;;;;3.37;3.07;;;27.60;47.50;;;;;;5090375;28;20204;-45
2023/06/13 03:06:55;;;;;;;4.87;3.13;;;27.60;47.50;;;;;;5066208;28;20539;-45
2023/06/13 03:09:26;;;;;;;3.77;3.00;;;27.60;47.50;;;;;;5090254;28;20497;-45
2023/06/13 03:11:54;;;;;;;3.03;2.83;;;27.60;47.50;;;;;;5053614;28;20204;-45
2023/06/13 03:14:25;;;;;;;3.70;2.80;;;27.60;47.60;;;;;;5089752;28;20222;-45
2023/06/13 03:16:59;;;;;;;3.23;2.93;;;27.50;47.50;;;;;;5085151;28;20783;-45
2023/06/13 03:19:30;;;;;;;3.00;2.70;;;27.60;47.60;;;;;;5087630;28;20244;-45
2023/06/13 03:22:01;;;;;;;3.13;2.80;;;27.50;47.50;;;;;;5089845;28;20266;-46
2023/06/13 03:24:46;;;;;;;3.43;3.10;;;27.60;47.60;;;;;;5088359;28;20349;-45
2023/06/13 03:27:19;;;;;;;3.40;3.10;;;27.50;47.60;;;;;;5089293;28;20236;-45
2023/06/13 03:29:47;;;;;;;3.40;3.10;;;27.50;47.60;;;;;;5074040;28;20197;-45
2023/06/13 03:32:18;;;;;;;3.10;2.80;;;27.50;47.60;;;;;;5096900;28;20209;-45
2023/06/13 03:34:50;;;;;;;3.33;3.00;;;27.50;47.60;;;;;;5073830;28;20637;-45
2023/06/13 03:37:20;;;;;;;3.57;3.27;;;27.40;47.50;;;;;;5064003;28;20269;-46
2023/06/13 03:39:52;;;;;;;2.97;2.77;;;27.50;47.60;;;;;;5093145;28;20221;-45
2023/06/13 03:42:22;;;;;;;3.03;2.73;;;27.50;47.60;;;;;;5091479;28;20508;-45
2023/06/13 03:44:54;;;;;;;3.60;3.20;;;27.50;47.60;;;;;;5081138;28;20189;-45
2023/06/13 03:47:26;;;;;;;3.83;3.33;;;27.40;47.60;;;;;;5079795;28;20647;-45
2023/06/13 03:49:56;;;;;;;4.87;2.80;;;27.40;47.60;;;;;;5089086;28;20197;-46
2023/06/13 03:52:28;;;;;;;4.00;2.93;;;27.40;47.50;;;;;;5088756;28;20216;-46
2023/06/13 03:54:58;;;;;;;3.50;3.20;;;27.40;47.50;;;;;;5084057;28;20341;-46
2023/06/13 03:57:31;;;;;;;2.97;2.77;;;27.40;47.50;;;;;;5089448;28;20204;-46
2023/06/13 04:00:05;;;;;;;5.60;2.90;;;27.40;47.50;;;;;;5076100;28;20285;-47
2023/06/13 04:02:36;;;;;;;3.20;2.90;;;27.40;47.50;;;;;;5090565;28;20245;-45
2023/06/13 04:05:08;;;;;;;3.47;2.73;;;27.40;47.50;;;;;;5091242;28;20245;-45
2023/06/13 04:07:40;;;;;;;3.00;2.70;;;27.40;47.50;;;;;;5086403;28;20244;-46
2023/06/13 04:10:10;;;;;;;3.97;3.07;;;27.40;47.50;;;;;;5079110;28;20294;-46
2023/06/13 04:12:40;;;;;;;5.17;2.90;;;27.40;47.60;;;;;;5071579;28;20211;-46
2023/06/13 04:15:09;;;;;;;3.80;2.80;;;27.40;47.60;;;;;;5089936;28;20611;-45
2023/06/13 04:17:38;;;;;;;3.90;2.70;;;27.30;47.50;;;;;;5090022;28;20196;-46
2023/06/13 04:20:10;;;;;;;3.30;3.00;;;27.30;47.50;;;;;;5071649;28;20221;-44
2023/06/13 04:22:37;;;;;;;4.23;3.13;;;27.40;47.60;;;;;;5076825;28;20189;-44
2023/06/13 04:25:10;;;;;;;3.73;3.20;;;27.30;47.60;;;;;;5090380;28;20272;-45
2023/06/13 04:27:43;;;;;;;3.17;2.87;;;27.30;47.40;;;;;;5090757;28;20244;-45
2023/06/13 04:30:19;;;;;;;3.03;2.73;;;27.30;47.50;;;;;;5091018;28;20193;-46
2023/06/13 04:32:57;;;;;;;3.13;2.83;;;27.30;47.50;;;;;;5080764;28;20701;-46
2023/06/13 04:35:37;;;;;;;2.77;2.53;;;27.30;47.50;;;;;;5090664;28;20193;-46
2023/06/13 04:38:08;;;;;;;2.70;2.50;;;27.30;47.50;;;;;;5091315;28;20287;-46
2023/06/13 04:40:39;;;;;;;3.30;2.90;;;27.30;47.50;;;;;;5088804;28;20421;-44
2023/06/13 04:43:09;;;;;;;4.80;3.00;;;27.30;47.40;;;;;;5085056;28;20217;-46
2023/06/13 04:45:44;;;;;;;3.17;2.87;;;27.30;47.50;;;;;;5090601;28;20602;-45
2023/06/13 04:48:14;;;;;;;2.97;2.70;;;27.30;47.50;;;;;;5090485;28;20196;-46
2023/06/13 04:50:44;;;;;;;3.23;2.93;;;27.30;47.50;;;;;;5085760;28;20209;-46
2023/06/13 04:53:16;;;;;;;4.33;2.93;;;27.30;47.40;;;;;;5093521;28;20826;-46
2023/06/13 04:55:49;;;;;;;3.00;2.70;;;27.30;47.40;;;;;;5088782;28;20213;-46
2023/06/13 04:58:20;;;;;;;3.60;3.30;;;27.30;47.40;;;;;;5081448;28;20292;-46
2023/06/13 05:00:51;;;;;;;2.93;2.73;;;27.30;47.40;;;;;;5087817;28;20185;-46
2023/06/13 05:03:23;;;;;;;3.80;2.90;;;27.30;47.40;;;;;;5087944;28;20247;-44
2023/06/13 05:05:54;;;;;;;3.60;3.23;;;27.20;47.30;;;;;;5085710;28;20662;-47
2023/06/13 05:08:25;;;;;;;4.17;3.13;;;27.20;47.30;;;;;;5077472;28;20209;-46
2023/06/13 05:11:00;;;;;;;3.87;3.00;;;27.30;47.20;;;;;;5089215;28;20219;-44
2023/06/13 05:13:32;;;;;;;4.53;3.33;;;27.30;47.30;;;;;;5075301;28;20199;-44
2023/06/13 05:16:03;;;;;;;3.77;3.37;;;27.20;47.20;;;;;;5085089;28;20257;-46
2023/06/13 05:18:44;;;;;;;3.57;3.13;;;27.20;47.10;;;;;;5080290;28;20216;-45
2023/06/13 05:21:16;;;;;;;6.80;3.57;;;27.20;47.20;;;;;;5091784;28;20193;-44
2023/06/13 05:23:48;;;;;;;3.83;3.43;;;27.20;47.20;;;;;;5089123;28;20205;-45
2023/06/13 05:26:20;;;;;;;3.83;3.43;;;27.20;47.00;;;;;;5084438;28;20204;-47
2023/06/13 05:28:54;;;;;;;3.60;3.27;;;27.20;46.70;;;;;;5088966;28;20237;-48
2023/06/13 05:31:26;;;;;;;4.33;3.80;;;27.20;46.60;;;;;;5095793;28;20254;-45
2023/06/13 05:33:56;;;;;;;5.10;3.77;;;27.20;46.40;;;;;;5086418;28;20307;-45
2023/06/13 05:36:31;;;;;;;4.73;3.70;;;27.10;46.40;;;;;;5086102;28;20201;-46
2023/06/13 05:39:01;;;;;;;4.07;3.67;;;27.20;46.40;;;;;;5090376;28;20227;-45
2023/06/13 05:41:34;;;;;;;5.17;3.80;;;27.20;46.20;;;;;;5091059;28;20618;-46
2023/06/13 05:44:06;;;;;;;4.23;3.83;;;27.10;46.10;;;;;;5070126;28;20197;-45
2023/06/13 05:46:32;;;;;;;4.23;3.80;;;27.10;46.00;;;;;;5073192;28;20197;-45
2023/06/13 05:49:04;;;;;;;7.90;4.10;;;27.20;46.10;;;;;;5090201;28;20416;-46
2023/06/13 05:51:36;;;;;;;4.57;4.17;;;27.10;46.00;;;;;;5064312;28;20197;-45
2023/06/13 05:54:07;;;;;;;4.43;4.03;;;27.10;45.90;;;;;;5049429;28;20220;-45
2023/06/13 05:56:40;;;;;;;4.20;3.83;;;27.10;45.80;;;;;;5087309;28;20603;-44
2023/06/13 05:59:09;;;;;;;5.17;4.03;;;27.10;45.80;;;;;;5090444;28;20278;-44
2023/06/13 06:01:40;;;;;;;4.63;4.23;;;27.10;45.60;;;;;;5090633;28;20270;-45
2023/06/13 06:04:12;;;;;;;4.90;3.97;;;27.10;45.60;;;;;;5073480;28;20219;-45
2023/06/13 06:06:42;;;;;;;4.43;4.03;;;27.10;45.60;;;;;;5086106;28;20204;-45
2023/06/13 06:09:13;;;;;;;4.80;4.30;;;27.10;45.60;;;;;;5090835;28;20278;-45
2023/06/13 06:11:45;;;;;;;5.53;4.23;;;27.10;45.70;;;;;;5090832;28;20193;-44
2023/06/13 06:14:15;;;;;;;4.87;4.40;;;27.10;45.50;;;;;;5088649;28;20209;-46
2023/06/13 06:16:47;;;;;;;4.83;4.20;;;27.10;45.40;;;;;;5070167;28;20207;-46
2023/06/13 06:19:16;;;;;;;7.10;4.00;;;27.10;45.50;;;;;;5087371;28;20236;-44
2023/06/13 06:21:46;;;;;;;5.93;4.47;;;27.10;45.40;;;;;;5056355;28;20205;-46
2023/06/13 06:24:23;;;;;;;4.57;4.10;;;27.10;45.40;;;;;;5078331;28;20273;-46
2023/06/13 06:27:00;;;;;;;4.20;3.80;;;27.10;45.30;;;;;;5084985;28;20191;-47
2023/06/13 06:29:32;;;;;;;6.53;4.13;;;27.10;45.60;;;;;;5088818;28;20622;-46
2023/06/13 06:32:02;;;;;;;5.43;3.80;;;27.10;45.80;;;;;;5091156;28;20239;-45
2023/06/13 06:34:34;;;;;;;4.00;3.70;;;27.10;46.00;;;;;;5082856;28;20573;-45
2023/06/13 06:37:07;;;;;;;4.57;3.90;;;27.10;46.00;;;;;;5082176;28;20201;-45
2023/06/13 06:39:43;;;;;;;5.60;4.07;;;27.10;46.10;;;;;;5074302;28;20660;-44
2023/06/13 06:42:14;;;;;;;4.00;3.60;;;27.10;46.20;;;;;;5090753;28;20618;-44
2023/06/13 06:44:45;;;;;;;4.80;4.20;;;27.10;46.20;;;;;;5078518;28;20201;-44
2023/06/13 06:47:16;;;;;;;5.23;3.77;;;27.10;46.30;;;;;;5090513;28;20201;-45
2023/06/13 06:49:47;;;;;;;5.80;4.13;;;27.10;46.20;;;;;;5077340;28;20226;-45
2023/06/13 06:52:18;;;;;;;4.90;3.77;;;27.10;46.20;;;;;;5088670;28;20299;-45
2023/06/13 06:54:49;;;;;;;4.87;4.37;;;27.20;46.30;;;;;;5084541;28;20193;-45
2023/06/13 06:57:18;;;;;;;4.57;3.90;;;27.20;46.30;;;;;;5089557;28;20584;-46
2023/06/13 06:59:56;;;;;;;4.00;3.60;;;27.10;46.20;;;;;;5090111;28;20201;-45
2023/06/13 07:02:27;;;;;;;4.27;3.87;;;27.10;46.30;;;;;;5090136;28;20193;-47
2023/06/13 07:04:59;;;;;;;4.57;4.10;;;27.10;46.20;;;;;;5084738;28;20208;-46
2023/06/13 07:07:32;;;;;;;4.13;3.63;;;27.10;46.40;;;;;;5083348;28;20209;-44
2023/06/13 07:10:05;;;;;;;3.53;3.23;;;27.20;46.60;;;;;;5089541;28;20622;-44
2023/06/13 07:12:33;;;;;;;4.20;3.80;;;27.20;46.70;;;;;;5072343;28;20213;-45
2023/06/13 07:15:03;;;;;;;5.53;4.20;;;27.40;46.70;;;;;;5081740;28;20289;-47
2023/06/13 07:17:40;;;;;;;6.27;3.97;;;27.30;46.20;;;;;;5089564;28;20242;-45
2023/06/13 07:20:11;;;;;;;7.30;3.47;;;27.00;43.90;;;;;;5085416;28;20698;-45
2023/06/13 07:22:41;;;;;;;6.57;3.97;;;26.70;43.40;;;;;;5080263;28;20293;-46
2023/06/13 07:25:12;;;;;;;3.80;3.40;;;26.50;43.20;;;;;;5088877;28;20193;-46
2023/06/13 07:27:44;;;;;;;4.63;3.77;;;26.20;43.00;;;;;;5084253;28;20945;-46
2023/06/13 07:30:13;;;;;;;4.40;4.00;;;26.00;43.30;;;;;;5088365;28;20193;-46
2023/06/13 07:32:48;;;;;;;4.30;3.90;;;25.90;43.20;;;;;;5092837;28;20204;-45
2023/06/13 07:35:23;;;;;;;3.60;3.30;;;25.70;42.90;;;;;;5089176;28;20212;-45
2023/06/13 07:37:52;;;;;;;4.50;4.10;;;25.60;43.10;;;;;;5089484;28;20200;-46
2023/06/13 07:40:29;;;;;;;4.20;3.77;;;25.50;43.20;;;;;;5056878;28;20213;-46
2023/06/13 07:43:00;;;;;;;4.27;3.87;;;25.40;43.20;;;;;;5083473;28;20217;-45
2023/06/13 07:45:32;;;;;;;4.00;3.27;;;25.30;43.20;;;;;;5073553;28;20189;-46
2023/06/13 07:48:01;;;;;;;4.13;3.80;;;25.20;43.10;;;;;;5072923;28;20189;-45
2023/06/13 07:50:34;;;;;;;3.80;3.40;;;25.20;43.10;;;;;;5092074;28;20193;-45
2023/06/13 07:53:05;;;;;;;3.93;3.53;;;24.90;42.00;;;;;;5091671;28;20189;-45
2023/06/13 07:55:32;;;;;;;4.90;3.53;;;24.80;42.80;;;;;;5088262;28;20280;-45
2023/06/13 07:58:04;;;;;;;3.83;3.43;;;24.60;42.10;;;;;;5073923;28;20212;-45
2023/06/13 08:00:37;;;;;;;3.57;3.03;;;24.40;41.90;;;;;;5090979;28;20549;-46
2023/06/13 08:03:10;;;;;;;3.53;3.20;;;24.30;42.00;;;;;;5071561;28;20200;-45
2023/06/13 08:05:42;;;;;;;3.50;3.20;;;24.30;41.70;;;;;;5089944;28;20254;-46
2023/06/13 08:08:12;;;;;;;3.97;3.57;;;24.30;41.40;;;;;;5085882;28;20228;-46
2023/06/13 08:10:43;;;;;;;3.83;3.23;;;24.30;41.10;;;;;;5068597;28;20396;-46
2023/06/13 08:13:14;;;;;;;3.77;3.40;;;24.20;41.00;;;;;;5089415;28;20662;-46
2023/06/13 08:15:44;;;;;;;4.70;3.43;;;24.20;40.80;;;;;;5089046;28;20200;-45
2023/06/13 08:18:18;;;;;;;3.70;3.30;;;24.20;40.70;;;;;;5089216;28;20517;-46
2023/06/13 08:20:48;;;;;;;3.37;3.07;;;24.20;40.30;;;;;;5079823;28;20686;-45
2023/06/13 08:23:18;;;;;;;3.37;3.07;;;24.10;40.30;;;;;;5088802;28;20212;-46
2023/06/13 08:25:50;;;;;;;3.40;3.10;;;24.00;40.40;;;;;;5071939;28;20204;-46
2023/06/13 08:28:25;;;;;;;4.87;3.50;;;24.00;40.10;;;;;;5085956;28;20604;-45
2023/06/13 08:30:55;;;;;;;3.23;2.93;;;24.00;40.40;;;;;;5085686;28;20222;-45
2023/06/13 08:33:45;;;;;;;3.23;3.03;;;24.00;41.40;;;;;;5043435;28;20201;-45
2023/06/13 08:36:35;;;;;;;3.60;3.30;;;24.00;42.70;;;;;;5090409;28;20189;-45
2023/06/13 08:39:09;;;;;;;4.20;3.10;;;24.00;43.60;;;;;;5075658;28;20193;-46
2023/06/13 08:41:41;;;;;;;3.37;2.93;;;24.00;44.10;;;;;;5094232;28;20192;-45
2023/06/13 08:44:15;;;;;;;3.23;2.93;;;24.00;44.40;;;;;;5090558;28;20255;-46
2023/06/13 08:46:46;;;;;;;3.43;2.97;;;24.00;44.30;;;;;;5057690;28;20201;-46
2023/06/13 08:49:19;;;;;;;3.60;3.30;;;24.10;45.00;;;;;;5074422;28;20265;-46
2023/06/13 08:51:54;;;;;;;5.20;3.33;;;24.10;44.40;;;;;;5092559;28;20634;-45
2023/06/13 08:54:38;;;;;;;3.90;3.37;;;24.10;44.40;;;;;;5092142;28;20193;-47
2023/06/13 08:57:32;;;;;;;2.70;2.50;;;24.00;44.50;;;;;;5077862;28;20204;-46
2023/06/13 09:00:11;;;;;;;4.10;3.13;;;24.00;44.60;;;;;;5048388;28;20224;-46
2023/06/13 09:02:46;;;;;;;3.20;2.90;;;24.00;44.80;;;;;;5089366;28;20201;-45
2023/06/13 09:05:18;;;;;;;3.57;3.27;;;24.00;44.90;;;;;;5076926;28;20189;-45
2023/06/13 09:07:58;;;;;;;3.57;2.97;;;24.00;44.80;;;;;;5077583;28;20201;-45
2023/06/13 09:10:49;;;;;;;3.57;3.27;;;24.10;45.00;;;;;;5094405;28;20209;-45
2023/06/13 09:13:21;;;;;;;3.40;3.10;;;24.10;44.90;;;;;;5098690;28;20261;-46
2023/06/13 09:15:52;;;;;;;4.07;3.20;;;24.10;44.90;;;;;;5059946;28;20831;-46
2023/06/13 09:18:25;;;;;;;4.33;3.10;;;24.10;44.90;;;;;;5082809;28;20201;-46
2023/06/13 09:20:57;;;;;;;3.83;3.53;;;24.10;45.00;;;;;;5074786;28;21077;-45
2023/06/13 09:23:28;;;;;;;3.73;3.27;;;24.00;45.00;;;;;;5093163;28;20208;-46
2023/06/13 09:25:58;;;;;;;3.00;2.80;;;24.10;45.00;;;;;;5076597;28;20561;-45
2023/06/13 09:28:40;;;;;;;3.67;3.23;;;24.10;45.00;;;;;;5075437;28;20298;-45
2023/06/13 09:31:10;;;;;;;3.30;3.00;;;24.10;45.00;;;;;;5079822;28;20219;-45
2023/06/13 09:33:43;;;;;;;8.23;3.43;;;24.10;45.00;;;;;;5080734;28;20589;-46
2023/06/13 09:36:11;;;;;;;3.70;3.30;;;24.10;45.30;;;;;;5096648;28;20193;-46
2023/06/13 09:38:42;;;;;;;6.87;3.33;;;24.20;45.60;;;;;;5088732;28;20200;-45
2023/06/13 09:41:15;;;;;;;3.53;3.20;;;24.40;45.70;;;;;;5089455;28;20254;-45
2023/06/13 09:43:50;;;;;;;3.33;2.90;;;24.50;45.80;;;;;;5073295;28;20212;-45
2023/06/13 09:46:26;;;;;;;3.23;2.90;;;24.60;45.60;;;;;;5090405;28;20201;-45
2023/06/13 09:48:56;;;;;;;3.50;3.20;;;24.70;45.50;;;;;;5088324;28;20196;-45
2023/06/13 09:51:32;;;;;;;3.67;3.03;;;24.80;45.50;;;;;;5087869;28;20254;-45
2023/06/13 09:54:06;;;;;;;4.47;3.53;;;24.90;45.40;;;;;;5092285;28;20201;-45
2023/06/13 09:56:44;;;;;;;4.97;3.43;;;25.00;45.40;;;;;;5074180;28;20204;-45
2023/06/13 09:59:18;;;;;;;4.10;3.70;;;25.00;45.30;;;;;;5091618;28;20262;-45
2023/06/13 10:01:49;;;;;;;6.20;3.70;;;25.10;45.30;;;;;;5086083;28;20198;-46
2023/06/13 10:04:18;;;;;;;5.87;3.47;;;25.20;45.20;;;;;;5087911;28;20215;-45
2023/06/13 10:06:50;;;;;;;3.80;3.33;;;25.30;45.20;;;;;;5083190;28;20572;-46
2023/06/13 10:09:22;;;;;;;5.03;3.53;;;25.40;45.20;;;;;;5090878;28;20200;-44
2023/06/13 10:11:57;;;;;;;6.37;3.53;;;25.40;45.20;;;;;;5091426;28;20196;-47
2023/06/13 10:14:32;;;;;;;3.90;3.50;;;25.50;45.20;;;;;;5074661;28;20562;-46
2023/06/13 10:17:12;;;;;;;4.43;3.63;;;25.50;45.20;;;;;;5040478;28;20201;-45
2023/06/13 10:20:00;;;;;;;4.30;3.23;;;25.60;45.10;;;;;;5072921;28;20322;-45
2023/06/13 10:22:47;;;;;;;4.87;3.90;;;25.60;45.10;;;;;;5056235;28;20207;-46
2023/06/13 10:25:35;;;;;;;4.40;3.53;;;25.70;49.60;;;;;;5075221;28;20193;-45
2023/06/13 10:28:35;;;;;;;6.77;4.00;;;25.60;45.50;;;;;;5095841;28;20302;-45
2023/06/13 10:31:26;;;;;;;9.47;4.17;;;25.50;45.70;;;;;;5094432;28;20291;-45
2023/06/13 10:34:30;;;;;;;7.13;4.10;;;25.60;45.40;;;;;;5089825;28;20189;-45
2023/06/13 10:37:38;;;;;;;4.47;3.80;;;25.70;45.50;;;;;;5083978;28;20268;-45
2023/06/13 10:40:51;;;;;;;6.27;4.00;;;25.80;45.30;;;;;;5059238;28;20243;-45
2023/06/13 10:43:49;;;;;;;5.37;4.00;;;25.80;45.30;;;;;;5069237;28;20244;-45
2023/06/13 10:46:19;;;;;;;4.43;3.73;;;25.90;45.30;;;;;;5090703;28;20217;-45
2023/06/13 10:48:53;;;;;;;6.50;3.80;;;26.00;45.30;;;;;;5085323;28;20204;-46
2023/06/13 10:51:36;;;;;;;5.27;3.40;;;26.00;45.30;;;;;;5071140;28;20534;-46
2023/06/13 10:54:13;;;;;;;6.70;4.10;;;26.10;45.30;;;;;;5073270;28;20619;-47
2023/06/13 10:56:49;;;;;;;5.13;3.70;;;26.10;45.20;;;;;;5073393;28;20369;-47
2023/06/13 10:59:18;;;;;;;5.07;3.63;;;26.20;45.30;;;;;;5088975;28;20205;-46
2023/06/13 11:01:53;;;;;;;4.87;3.57;;;26.30;45.30;;;;;;5090949;28;20209;-46
2023/06/13 11:04:29;;;;;;;3.90;3.50;;;26.30;45.20;;;;;;5072797;28;20189;-46
2023/06/13 11:07:38;;;;;;;6.23;4.13;;;26.30;45.20;;;;;;5086305;28;20599;-46
2023/06/13 11:10:15;;;;;;;4.00;3.60;;;26.40;45.20;;;;;;5005487;28;20234;-44
2023/06/13 11:12:47;;;;;;;4.17;3.77;;;26.40;45.20;;;;;;4988867;28;20215;-45
2023/06/13 11:15:27;;;;;;;4.00;3.60;;;26.50;45.30;;;;;;5007588;28;20226;-45
2023/06/13 11:18:14;;;;;;;3.97;3.50;;;26.50;45.30;;;;;;5012996;28;20226;-47
2023/06/13 11:21:00;;;;;;;4.17;3.40;;;26.60;45.30;;;;;;5006538;28;20236;-46
2023/06/13 11:23:38;;;;;;;5.03;3.80;;;26.60;45.30;;;;;;5011459;28;20778;-46
2023/06/13 11:26:10;;;;;;;4.40;4.00;;;26.60;45.30;;;;;;5014311;28;20252;-46
2023/06/13 11:28:40;;;;;;;5.87;3.60;;;26.70;45.30;;;;;;4995671;28;20228;-46
2023/06/13 11:31:12;;;;;;;3.37;3.07;;;26.70;45.30;;;;;;5011220;28;20572;-46
2023/06/13 11:33:46;;;;;;;3.83;3.40;;;26.70;45.20;;;;;;5004892;28;20210;-46
2023/06/13 11:36:24;;;;;;;4.20;3.80;;;26.80;45.20;;;;;;5008170;28;20633;-47
2023/06/13 11:39:10;;;;;;;4.37;3.63;;;26.80;45.30;;;;;;5085030;28;20201;-47
2023/06/13 11:41:40;;;;;;;4.50;3.63;;;26.80;45.20;;;;;;5065152;28;20213;-47
2023/06/13 11:44:12;;;;;;;4.70;3.90;;;26.80;45.20;;;;;;5070252;28;20551;-46
2023/06/13 11:46:46;;;;;;;5.90;4.20;;;26.90;45.30;;;;;;5069443;28;20188;-46
2023/06/13 11:49:17;;;;;;;4.93;3.50;;;26.90;45.30;;;;;;5077346;28;20590;-46
2023/06/13 11:51:49;;;;;;;4.50;4.10;;;26.90;45.30;;;;;;5078449;28;20193;-47
2023/06/13 11:54:27;;;;;;;4.30;3.60;;;26.90;45.40;;;;;;5088449;28;20205;-46
2023/06/13 11:56:55;;;;;;;4.07;3.67;;;27.00;45.30;;;;;;5070084;28;20274;-46
2023/06/13 11:59:27;;;;;;;3.97;3.40;;;27.00;45.30;;;;;;5093911;28;20193;-47
2023/06/13 12:02:00;;;;;;;3.77;3.47;;;27.00;45.30;;;;;;5090174;28;20209;-46
2023/06/13 12:04:34;;;;;;;3.93;3.63;;;27.10;45.30;;;;;;5089911;28;20188;-47
2023/06/13 12:07:07;;;;;;;6.47;3.50;;;27.10;45.20;;;;;;5068270;28;20595;-45
2023/06/13 12:09:41;;;;;;;5.90;3.67;;;27.10;45.00;;;;;;5088157;28;20200;-46
2023/06/13 12:12:11;;;;;;;6.07;3.73;;;27.10;45.00;;;;;;5071432;28;20217;-46
2023/06/13 12:14:39;;;;;;;5.20;3.60;;;27.20;45.00;;;;;;5085885;28;20185;-45
2023/06/13 12:17:09;;;;;;;4.17;3.60;;;27.20;45.00;;;;;;5070300;28;20189;-45
2023/06/13 12:19:40;;;;;;;5.87;4.20;;;27.30;45.10;;;;;;5086666;28;20205;-46
2023/06/13 12:22:15;;;;;;;4.50;3.97;;;27.20;45.20;;;;;;5081673;28;20828;-45
2023/06/13 12:24:49;;;;;;;4.70;3.80;;;27.30;45.30;;;;;;5062498;28;20210;-45
2023/06/13 12:27:21;;;;;;;4.00;3.70;;;27.30;45.10;;;;;;5087681;28;20224;-46
2023/06/13 12:30:13;;;;;;;5.27;4.00;;;27.30;45.20;;;;;;5088924;28;20275;-47
2023/06/13 12:32:56;;;;;;;3.40;3.10;;;27.40;45.30;;;;;;5096913;28;20677;-47
2023/06/13 12:35:29;;;;;;;4.10;3.70;;;27.40;45.30;;;;;;5089568;28;20528;-45
2023/06/13 12:38:04;;;;;;;4.13;3.80;;;27.40;45.40;;;;;;5089324;28;20204;-46
2023/06/13 12:40:35;;;;;;;3.77;3.47;;;27.40;45.40;;;;;;5071833;28;20208;-45
2023/06/13 12:43:06;;;;;;;5.53;3.87;;;27.50;45.40;;;;;;5083910;28;20205;-46
2023/06/13 12:45:35;;;;;;;4.70;3.97;;;27.50;45.40;;;;;;5089457;28;20185;-46
2023/06/13 12:48:05;;;;;;;5.03;3.90;;;27.50;45.40;;;;;;5072538;28;20197;-46
2023/06/13 12:50:37;;;;;;;6.30;3.83;;;27.50;45.50;;;;;;5089408;28;20611;-45
2023/06/13 12:53:06;;;;;;;3.87;3.53;;;27.60;45.40;;;;;;5088265;28;20245;-45
2023/06/13 12:55:41;;;;;;;4.10;3.80;;;27.60;45.30;;;;;;5069382;28;20213;-46
2023/06/13 12:58:30;;;;;;;5.07;4.13;;;27.60;45.20;;;;;;5086435;28;20225;-46
2023/06/13 13:01:06;;;;;;;5.13;3.80;;;27.70;45.30;;;;;;5087818;28;20232;-46
2023/06/13 13:03:35;;;;;;;4.17;3.77;;;27.60;45.30;;;;;;5059668;28;20676;-46
2023/06/13 13:06:06;;;;;;;4.20;3.83;;;27.70;45.40;;;;;;5071535;28;20212;-47
2023/06/13 13:08:36;;;;;;;4.03;3.67;;;27.80;45.40;;;;;;5085147;28;20220;-47
2023/06/13 13:11:19;;;;;;;4.03;3.50;;;27.70;45.30;;;;;;5088115;28;20224;-46
2023/06/13 13:13:50;;;;;;;4.70;4.30;;;27.80;45.30;;;;;;5081721;28;20208;-47
2023/06/13 13:16:21;;;;;;;4.47;3.73;;;27.80;45.30;;;;;;5089173;28;20205;-46
2023/06/13 13:18:51;;;;;;;3.73;3.40;;;27.90;45.40;;;;;;5082197;28;20208;-47
2023/06/13 13:21:25;;;;;;;6.07;3.53;;;27.80;45.30;;;;;;5089772;28;20217;-46
2023/06/13 13:23:55;;;;;;;6.57;4.00;;;27.90;45.20;;;;;;5091617;28;20219;-46